Time;durP1;ratioP1;P1;durP2;ratioP2;P2;SDS_P1;SDS_P2;PMS_P1;PMS_P2;Temp;Humidity;BMP_temperature;BMP_pressure;BME280_temperature;BME280_humidity;BME280_pressure;Samples;Min_cycle;Max_cycle;Signal;HPM_P1;HPM_P2
2023/06/07 00:00:52;;;;;;;16.17;7.32;;;;;;;;;;4962984;28;99323;-78
2023/06/07 00:03:19;;;;;;;21.83;7.45;;;;;;;;;;4963221;28;98503;-79
2023/06/07 00:05:46;;;;;;;17.63;7.43;;;;;;;;;;4958525;28;98544;-78
2023/06/07 00:08:13;;;;;;;17.58;7.15;;;;;;;;;;4963180;28;99855;-78
2023/06/07 00:10:39;;;;;;;16.60;7.30;;;;;;;;;;4955326;28;98493;-78
2023/06/07 00:13:06;;;;;;;15.45;6.80;;;;;;;;;;4962392;28;100825;-78
2023/06/07 00:15:33;;;;;;;14.68;6.93;;;;;;;;;;4948885;28;98484;-78
2023/06/07 00:18:00;;;;;;;17.67;7.32;;;;;;;;;;4951453;28;98592;-78
2023/06/07 00:20:30;;;;;;;18.63;7.13;;;;;;;;;;4960931;28;99065;-77
2023/06/07 00:22:57;;;;;;;18.48;8.27;;;;;;;;;;4953003;28;98529;-77
2023/06/07 00:25:24;;;;;;;17.08;7.28;;;;;;;;;;4946648;28;101406;-78
2023/06/07 00:27:52;;;;;;;17.25;6.80;;;;;;;;;;4948147;28;98458;-77
2023/06/07 00:30:19;;;;;;;15.88;7.50;;;;;;;;;;4958334;28;98341;-78
2023/06/07 00:32:46;;;;;;;18.25;6.65;;;;;;;;;;4934835;28;101473;-78
2023/06/07 00:35:13;;;;;;;14.52;6.97;;;;;;;;;;4958359;28;97960;-79
2023/06/07 00:37:40;;;;;;;21.40;7.15;;;;;;;;;;4962545;28;101528;-78
2023/06/07 00:40:07;;;;;;;18.42;7.40;;;;;;;;;;4961286;28;99092;-78
2023/06/07 00:42:33;;;;;;;17.25;6.90;;;;;;;;;;4962028;28;98254;-79
2023/06/07 00:45:00;;;;;;;18.23;6.88;;;;;;;;;;4961839;28;98244;-78
2023/06/07 00:47:26;;;;;;;22.13;6.70;;;;;;;;;;4957693;28;98425;-79
2023/06/07 00:49:53;;;;;;;12.02;6.38;;;;;;;;;;4964590;28;97812;-79
2023/06/07 00:52:21;;;;;;;12.68;6.38;;;;;;;;;;4965319;28;98575;-79
2023/06/07 00:54:48;;;;;;;12.52;6.28;;;;;;;;;;4963123;28;98264;-78
2023/06/07 00:57:16;;;;;;;14.25;6.25;;;;;;;;;;4945693;28;100931;-78
2023/06/07 00:59:43;;;;;;;15.80;6.53;;;;;;;;;;4962107;28;100562;-78
2023/06/07 01:02:14;;;;;;;14.25;6.55;;;;;;;;;;4957897;28;97833;-79
2023/06/07 01:04:42;;;;;;;16.98;7.03;;;;;;;;;;4964794;28;98948;-78
2023/06/07 01:07:08;;;;;;;19.48;8.10;;;;;;;;;;4962967;28;99178;-78
2023/06/07 01:09:39;;;;;;;13.00;6.40;;;;;;;;;;4955456;28;98427;-79
2023/06/07 01:12:06;;;;;;;13.25;6.78;;;;;;;;;;4962739;28;101018;-78
2023/06/07 01:14:33;;;;;;;16.17;6.40;;;;;;;;;;4955471;28;97764;-79
2023/06/07 01:17:02;;;;;;;15.25;6.35;;;;;;;;;;4947974;28;98175;-79
2023/06/07 01:19:29;;;;;;;15.70;7.50;;;;;;;;;;4955563;28;98195;-78
2023/06/07 01:21:58;;;;;;;17.17;6.55;;;;;;;;;;4958748;28;99254;-79
2023/06/07 01:24:28;;;;;;;11.18;6.20;;;;;;;;;;4956343;28;100569;-79
2023/06/07 01:26:57;;;;;;;16.50;7.82;;;;;;;;;;4961696;28;101312;-78
2023/06/07 01:29:25;;;;;;;15.07;6.75;;;;;;;;;;4958252;28;98521;-78
2023/06/07 01:31:53;;;;;;;18.48;6.03;;;;;;;;;;4955368;28;97973;-79
2023/06/07 01:34:20;;;;;;;19.58;6.55;;;;;;;;;;4942699;28;98405;-79
2023/06/07 01:36:48;;;;;;;18.73;6.57;;;;;;;;;;4945732;28;98404;-78
2023/06/07 01:39:15;;;;;;;16.83;6.93;;;;;;;;;;4942737;28;99640;-79
2023/06/07 01:41:42;;;;;;;18.60;6.65;;;;;;;;;;4947647;28;98102;-79
2023/06/07 01:44:11;;;;;;;11.25;5.78;;;;;;;;;;4969304;28;98133;-79
2023/06/07 01:46:38;;;;;;;13.38;7.40;;;;;;;;;;4957386;28;99276;-78
2023/06/07 01:49:05;;;;;;;18.25;6.15;;;;;;;;;;4932163;28;98080;-78
2023/06/07 01:51:32;;;;;;;15.60;6.10;;;;;;;;;;4957767;28;98999;-78
2023/06/07 01:54:00;;;;;;;17.63;6.65;;;;;;;;;;4961767;28;97961;-78
2023/06/07 01:56:26;;;;;;;20.42;7.25;;;;;;;;;;4960937;28;98466;-78
2023/06/07 01:59:00;;;;;;;17.75;6.68;;;;;;;;;;4959369;28;98137;-78
2023/06/07 02:01:33;;;;;;;21.80;6.95;;;;;;;;;;4934727;28;98697;-78
2023/06/07 02:04:02;;;;;;;14.48;6.25;;;;;;;;;;4934224;28;97981;-78
2023/06/07 02:06:32;;;;;;;19.05;6.40;;;;;;;;;;4930341;28;98408;-78
2023/06/07 02:09:06;;;;;;;16.73;6.30;;;;;;;;;;4946308;28;99223;-78
2023/06/07 02:11:36;;;;;;;15.43;6.65;;;;;;;;;;4944097;28;101653;-78
2023/06/07 02:14:04;;;;;;;19.52;7.05;;;;;;;;;;4953448;28;100501;-78
2023/06/07 02:16:37;;;;;;;10.77;6.32;;;;;;;;;;4943617;28;98515;-78
2023/06/07 02:19:08;;;;;;;20.65;5.82;;;;;;;;;;4955803;28;101642;-78
2023/06/07 02:21:48;;;;;;;11.73;5.63;;;;;;;;;;4953497;28;98275;-78
2023/06/07 02:24:16;;;;;;;14.32;6.50;;;;;;;;;;4960771;28;98706;-78
2023/06/07 02:26:42;;;;;;;17.70;5.93;;;;;;;;;;4954854;28;99053;-78
2023/06/07 02:29:09;;;;;;;20.33;6.07;;;;;;;;;;4944094;28;97759;-79
2023/06/07 02:31:36;;;;;;;15.45;6.35;;;;;;;;;;4942925;28;98286;-79
2023/06/07 02:34:03;;;;;;;14.88;6.43;;;;;;;;;;4945346;28;98551;-78
2023/06/07 02:36:33;;;;;;;23.27;6.68;;;;;;;;;;4966670;28;98694;-79
2023/06/07 02:39:02;;;;;;;22.08;6.72;;;;;;;;;;4955118;28;100749;-79
2023/06/07 02:41:29;;;;;;;23.85;7.18;;;;;;;;;;4958539;28;101111;-79
2023/06/07 02:43:55;;;;;;;14.38;6.05;;;;;;;;;;4967611;28;100313;-79
2023/06/07 02:46:22;;;;;;;16.10;6.70;;;;;;;;;;4952532;28;100196;-78
2023/06/07 02:48:48;;;;;;;14.23;7.43;;;;;;;;;;4960475;28;98380;-79
2023/06/07 02:51:15;;;;;;;20.73;7.35;;;;;;;;;;4965864;28;100688;-79
2023/06/07 02:53:44;;;;;;;15.88;7.32;;;;;;;;;;4948219;28;97729;-79
2023/06/07 02:56:12;;;;;;;15.57;6.00;;;;;;;;;;4945454;28;98491;-78
2023/06/07 02:58:38;;;;;;;16.20;6.53;;;;;;;;;;4955177;28;99593;-78
2023/06/07 03:01:07;;;;;;;20.73;7.10;;;;;;;;;;4954907;28;100802;-78
2023/06/07 03:03:41;;;;;;;22.33;6.75;;;;;;;;;;4970251;28;98333;-78
2023/06/07 03:06:09;;;;;;;13.70;7.10;;;;;;;;;;4966907;28;98901;-78
2023/06/07 03:08:37;;;;;;;14.63;6.70;;;;;;;;;;4963668;28;98077;-78
2023/06/07 03:11:06;;;;;;;15.50;7.32;;;;;;;;;;4960508;28;98516;-79
2023/06/07 03:13:37;;;;;;;13.63;6.97;;;;;;;;;;4966860;28;100969;-79
2023/06/07 03:16:08;;;;;;;18.75;6.20;;;;;;;;;;4967610;28;98512;-79
2023/06/07 03:18:44;;;;;;;18.73;6.43;;;;;;;;;;4950381;28;101214;-79
2023/06/07 03:21:11;;;;;;;12.05;6.15;;;;;;;;;;4962042;28;98191;-78
2023/06/07 03:23:40;;;;;;;14.98;7.00;;;;;;;;;;4961355;28;98788;-78
2023/06/07 03:26:10;;;;;;;23.02;6.63;;;;;;;;;;4970274;28;99175;-78
2023/06/07 03:28:37;;;;;;;15.98;7.00;;;;;;;;;;4968016;28;98042;-79
2023/06/07 03:31:05;;;;;;;15.23;6.40;;;;;;;;;;4965479;28;100187;-79
2023/06/07 03:33:41;;;;;;;15.57;6.63;;;;;;;;;;4967302;28;100652;-79
2023/06/07 03:36:08;;;;;;;18.00;6.30;;;;;;;;;;4968507;28;98528;-79
2023/06/07 03:38:37;;;;;;;17.33;6.57;;;;;;;;;;4966599;28;98529;-79
2023/06/07 03:41:04;;;;;;;14.60;6.57;;;;;;;;;;4967065;28;99303;-78
2023/06/07 03:43:35;;;;;;;22.13;6.63;;;;;;;;;;4965507;28;97877;-79
2023/06/07 03:46:02;;;;;;;16.67;6.35;;;;;;;;;;4973838;28;100801;-79
2023/06/07 03:48:30;;;;;;;14.63;5.88;;;;;;;;;;4938357;28;101038;-78
2023/06/07 03:50:59;;;;;;;14.57;7.28;;;;;;;;;;4935239;28;99222;-78
2023/06/07 03:53:25;;;;;;;11.05;5.82;;;;;;;;;;4951856;28;101816;-78
2023/06/07 03:55:53;;;;;;;24.88;5.90;;;;;;;;;;4951537;28;98303;-77
2023/06/07 03:58:24;;;;;;;16.92;6.10;;;;;;;;;;4952212;28;100270;-78
2023/06/07 04:00:53;;;;;;;14.35;5.47;;;;;;;;;;4952801;28;101899;-78
2023/06/07 04:03:27;;;;;;;17.90;6.03;;;;;;;;;;4965744;28;98488;-78
2023/06/07 04:05:57;;;;;;;18.70;6.75;;;;;;;;;;4941696;28;98548;-78
2023/06/07 04:08:24;;;;;;;18.00;6.40;;;;;;;;;;4941245;28;99896;-79
2023/06/07 04:10:51;;;;;;;16.50;6.38;;;;;;;;;;4958092;28;98341;-78
2023/06/07 04:13:17;;;;;;;23.85;7.15;;;;;;;;;;4962288;28;98529;-79
2023/06/07 04:15:44;;;;;;;13.82;5.93;;;;;;;;;;4963648;28;98741;-78
2023/06/07 04:18:11;;;;;;;14.13;6.32;;;;;;;;;;4942651;28;100630;-78
2023/06/07 04:20:40;;;;;;;21.52;6.85;;;;;;;;;;4959377;28;100608;-78
2023/06/07 04:23:08;;;;;;;19.98;6.20;;;;;;;;;;4943245;28;98282;-79
2023/06/07 04:25:35;;;;;;;18.20;6.20;;;;;;;;;;4959275;28;100000;-78
2023/06/07 04:28:04;;;;;;;17.85;7.05;;;;;;;;;;4953961;28;99887;-78
2023/06/07 04:30:36;;;;;;;18.35;6.97;;;;;;;;;;4955466;28;98632;-78
2023/06/07 04:33:08;;;;;;;20.00;7.30;;;;;;;;;;4947585;28;101162;-79
2023/06/07 04:35:41;;;;;;;15.88;6.18;;;;;;;;;;4950902;28;98437;-79
2023/06/07 04:38:11;;;;;;;13.32;6.95;;;;;;;;;;4974973;28;101126;-78
2023/06/07 04:40:41;;;;;;;24.10;8.63;;;;;;;;;;4948122;28;101051;-78
2023/06/07 04:43:11;;;;;;;20.33;6.97;;;;;;;;;;4945405;28;98104;-79
2023/06/07 04:45:40;;;;;;;24.70;7.50;;;;;;;;;;4964210;28;98851;-79
2023/06/07 04:48:11;;;;;;;18.63;7.10;;;;;;;;;;4942969;28;98315;-79
2023/06/07 04:50:41;;;;;;;17.20;6.95;;;;;;;;;;4955479;28;99576;-78
2023/06/07 04:53:08;;;;;;;20.27;6.60;;;;;;;;;;4960520;28;100307;-79
2023/06/07 04:55:35;;;;;;;28.70;7.97;;;;;;;;;;4937023;28;98193;-79
2023/06/07 04:58:05;;;;;;;21.35;7.15;;;;;;;;;;4962393;28;97791;-79
2023/06/07 05:00:34;;;;;;;19.45;6.30;;;;;;;;;;4961255;28;100070;-79
2023/06/07 05:03:06;;;;;;;16.63;6.05;;;;;;;;;;4961452;28;98574;-78
2023/06/07 05:05:35;;;;;;;21.75;7.03;;;;;;;;;;4962257;28;100702;-80
2023/06/07 05:08:03;;;;;;;23.38;7.53;;;;;;;;;;4946867;28;101434;-78
2023/06/07 05:10:30;;;;;;;21.13;7.00;;;;;;;;;;4955532;28;98440;-79
2023/06/07 05:12:59;;;;;;;17.90;7.05;;;;;;;;;;4950421;28;98498;-78
2023/06/07 05:15:27;;;;;;;21.17;6.35;;;;;;;;;;4945529;28;98578;-79
2023/06/07 05:17:54;;;;;;;22.75;7.18;;;;;;;;;;4948621;28;100809;-80
2023/06/07 05:20:24;;;;;;;27.00;7.20;;;;;;;;;;4958902;28;100819;-78
2023/06/07 05:22:51;;;;;;;27.40;6.75;;;;;;;;;;4949916;28;98035;-79
2023/06/07 05:25:18;;;;;;;25.27;6.72;;;;;;;;;;4960400;28;98455;-78
2023/06/07 05:27:44;;;;;;;19.80;7.22;;;;;;;;;;4958938;28;99124;-79
2023/06/07 05:30:19;;;;;;;23.90;6.28;;;;;;;;;;4939309;28;99177;-79
2023/06/07 05:32:48;;;;;;;31.05;6.53;;;;;;;;;;4938171;28;100635;-79
2023/06/07 05:35:14;;;;;;;22.77;7.25;;;;;;;;;;4944514;28;98506;-77
2023/06/07 05:37:45;;;;;;;15.65;5.65;;;;;;;;;;4951179;28;98528;-78
2023/06/07 05:40:15;;;;;;;25.05;6.88;;;;;;;;;;4953494;28;100337;-78
2023/06/07 05:42:42;;;;;;;22.83;6.63;;;;;;;;;;4955045;28;99381;-78
2023/06/07 05:45:09;;;;;;;28.20;6.90;;;;;;;;;;4958489;28;99695;-79
2023/06/07 05:47:35;;;;;;;25.38;6.72;;;;;;;;;;4958762;28;98249;-79
2023/06/07 05:50:04;;;;;;;20.45;7.20;;;;;;;;;;4960626;28;97794;-79
2023/06/07 05:52:31;;;;;;;22.73;7.13;;;;;;;;;;4958522;28;98947;-78
2023/06/07 05:54:58;;;;;;;15.10;6.22;;;;;;;;;;4955332;28;99076;-79
2023/06/07 05:57:25;;;;;;;19.75;6.43;;;;;;;;;;4926507;28;98565;-78
2023/06/07 05:59:52;;;;;;;18.88;6.00;;;;;;;;;;4964267;28;98374;-79
2023/06/07 06:02:20;;;;;;;19.77;5.20;;;;;;;;;;4960089;28;98056;-79
2023/06/07 06:04:51;;;;;;;18.88;5.38;;;;;;;;;;4961277;28;99174;-79
2023/06/07 06:07:18;;;;;;;12.93;5.68;;;;;;;;;;4959399;28;102800;-79
2023/06/07 06:09:44;;;;;;;12.75;5.07;;;;;;;;;;4959060;28;98401;-79
2023/06/07 06:12:11;;;;;;;18.88;6.38;;;;;;;;;;4959449;28;97672;-79
2023/06/07 06:14:38;;;;;;;17.52;5.13;;;;;;;;;;4957949;28;99215;-78
2023/06/07 06:17:05;;;;;;;21.25;5.35;;;;;;;;;;4958812;28;98052;-78
2023/06/07 06:19:32;;;;;;;15.70;5.47;;;;;;;;;;4957472;28;99238;-78
2023/06/07 06:21:58;;;;;;;20.13;5.82;;;;;;;;;;4958299;28;101288;-79
2023/06/07 06:24:25;;;;;;;18.88;5.05;;;;;;;;;;4960160;28;98777;-79
2023/06/07 06:26:51;;;;;;;16.17;5.10;;;;;;;;;;4958790;28;98150;-78
2023/06/07 06:29:18;;;;;;;19.20;5.13;;;;;;;;;;4959307;28;98704;-79
2023/06/07 06:31:44;;;;;;;14.07;5.78;;;;;;;;;;4953414;28;99028;-79
2023/06/07 06:34:12;;;;;;;13.23;5.03;;;;;;;;;;4956820;28;98411;-79
2023/06/07 06:36:39;;;;;;;20.40;5.93;;;;;;;;;;4960626;28;97799;-78
2023/06/07 06:39:07;;;;;;;23.75;6.13;;;;;;;;;;4958926;28;98470;-79
2023/06/07 06:41:35;;;;;;;15.82;6.63;;;;;;;;;;4962333;28;101291;-78
2023/06/07 06:44:03;;;;;;;13.43;4.65;;;;;;;;;;4953146;28;99511;-79
2023/06/07 06:46:30;;;;;;;22.83;6.10;;;;;;;;;;4945491;28;99561;-79
2023/06/07 06:48:57;;;;;;;12.10;4.68;;;;;;;;;;4958198;28;97916;-79
2023/06/07 06:51:38;;;;;;;10.23;4.17;;;;;;;;;;4955400;28;98157;-79
2023/06/07 06:54:07;;;;;;;9.55;4.38;;;;;;;;;;4953801;28;98455;-78
2023/06/07 06:56:34;;;;;;;11.02;4.25;;;;;;;;;;4949221;28;98209;-78
2023/06/07 06:59:01;;;;;;;14.57;5.50;;;;;;;;;;4956250;28;99034;-79
2023/06/07 07:01:41;;;;;;;14.68;4.85;;;;;;;;;;4945202;28;97515;-78
2023/06/07 07:04:08;;;;;;;14.23;4.63;;;;;;;;;;4962679;28;98141;-78
2023/06/07 07:06:35;;;;;;;21.33;4.85;;;;;;;;;;4941477;28;99362;-78
2023/06/07 07:09:03;;;;;;;17.55;4.25;;;;;;;;;;4958235;28;99244;-79
2023/06/07 07:11:30;;;;;;;13.52;5.18;;;;;;;;;;4958458;28;102093;-78
2023/06/07 07:13:57;;;;;;;17.27;4.30;;;;;;;;;;4960323;28;98703;-79
2023/06/07 07:16:24;;;;;;;21.55;3.97;;;;;;;;;;4950264;28;98560;-78
2023/06/07 07:18:51;;;;;;;15.52;4.57;;;;;;;;;;4971757;28;98303;-79
2023/06/07 07:21:20;;;;;;;12.02;4.22;;;;;;;;;;4953187;28;98448;-79
2023/06/07 07:23:46;;;;;;;19.70;4.75;;;;;;;;;;4945575;28;98398;-79
2023/06/07 07:26:13;;;;;;;14.82;4.13;;;;;;;;;;4951453;28;100870;-78
2023/06/07 07:28:39;;;;;;;14.15;4.43;;;;;;;;;;4949806;28;98583;-78
2023/06/07 07:31:06;;;;;;;12.73;4.55;;;;;;;;;;4949195;28;99510;-78
2023/06/07 07:33:33;;;;;;;20.27;5.03;;;;;;;;;;4943637;28;99937;-78
2023/06/07 07:36:02;;;;;;;12.43;4.18;;;;;;;;;;4949398;28;98496;-79
2023/06/07 07:38:32;;;;;;;13.27;4.28;;;;;;;;;;4961500;28;98482;-79
2023/06/07 07:40:59;;;;;;;14.77;3.92;;;;;;;;;;4944389;28;101670;-78
2023/06/07 07:43:26;;;;;;;17.92;4.68;;;;;;;;;;4946042;28;98470;-78
2023/06/07 07:45:56;;;;;;;22.95;4.70;;;;;;;;;;4955486;28;98470;-78
2023/06/07 07:48:23;;;;;;;16.00;4.47;;;;;;;;;;4952347;28;99360;-78
2023/06/07 07:50:49;;;;;;;14.23;4.55;;;;;;;;;;4958782;28;101032;-78
2023/06/07 07:53:16;;;;;;;12.32;4.55;;;;;;;;;;4941973;28;99445;-78
2023/06/07 07:55:43;;;;;;;15.68;5.20;;;;;;;;;;4959959;28;98579;-78
2023/06/07 07:58:09;;;;;;;17.83;4.85;;;;;;;;;;4955440;28;99359;-79
2023/06/07 08:00:36;;;;;;;17.60;4.05;;;;;;;;;;4958647;28;99250;-78
2023/06/07 08:03:03;;;;;;;18.52;4.28;;;;;;;;;;4956612;28;98742;-78
2023/06/07 08:05:30;;;;;;;12.88;4.07;;;;;;;;;;4959498;28;100581;-78
2023/06/07 08:07:57;;;;;;;18.08;4.00;;;;;;;;;;4957352;28;100821;-78
2023/06/07 08:10:24;;;;;;;17.10;4.28;;;;;;;;;;4959845;28;98618;-78
2023/06/07 08:12:51;;;;;;;13.13;3.55;;;;;;;;;;4949924;28;99148;-78
2023/06/07 08:15:18;;;;;;;14.88;3.72;;;;;;;;;;4949043;28;97811;-78
2023/06/07 08:17:44;;;;;;;14.90;4.13;;;;;;;;;;4952902;28;98385;-79
2023/06/07 08:20:11;;;;;;;13.82;4.43;;;;;;;;;;4944517;28;100825;-78
2023/06/07 08:22:38;;;;;;;15.63;4.35;;;;;;;;;;4945001;28;99283;-78
2023/06/07 08:25:05;;;;;;;13.88;4.40;;;;;;;;;;4961275;28;99821;-79
2023/06/07 08:27:31;;;;;;;14.70;4.60;;;;;;;;;;4946564;28;98157;-79
2023/06/07 08:29:58;;;;;;;17.50;4.45;;;;;;;;;;4959142;28;98558;-78
2023/06/07 08:32:25;;;;;;;9.80;4.35;;;;;;;;;;4946568;28;100816;-78
2023/06/07 08:34:51;;;;;;;18.35;4.43;;;;;;;;;;4960205;28;98566;-79
2023/06/07 08:37:18;;;;;;;13.70;5.40;;;;;;;;;;4960996;28;98355;-78
2023/06/07 08:39:44;;;;;;;14.55;4.40;;;;;;;;;;4950447;28;97804;-78
2023/06/07 08:42:11;;;;;;;13.10;3.85;;;;;;;;;;4959869;28;98572;-78
2023/06/07 08:44:39;;;;;;;10.00;4.30;;;;;;;;;;4964455;28;101601;-78
2023/06/07 08:47:06;;;;;;;13.13;4.05;;;;;;;;;;4966990;28;99269;-78
2023/06/07 08:49:37;;;;;;;10.75;4.60;;;;;;;;;;4958666;28;98527;-78
2023/06/07 08:52:05;;;;;;;16.33;5.03;;;;;;;;;;4957419;28;100390;-78
2023/06/07 08:54:42;;;;;;;17.13;5.22;;;;;;;;;;4960650;28;98138;-78
2023/06/07 08:57:09;;;;;;;12.13;4.40;;;;;;;;;;4952751;28;98144;-78
2023/06/07 08:59:36;;;;;;;17.00;4.68;;;;;;;;;;4958732;28;98355;-79
2023/06/07 09:02:06;;;;;;;17.58;4.07;;;;;;;;;;4959032;28;98467;-78
2023/06/07 09:04:34;;;;;;;11.35;4.00;;;;;;;;;;4943178;28;98161;-79
2023/06/07 09:07:04;;;;;;;16.42;5.30;;;;;;;;;;4959695;28;99519;-79
2023/06/07 09:09:30;;;;;;;12.32;4.78;;;;;;;;;;4960704;28;98860;-80
2023/06/07 09:12:00;;;;;;;16.17;5.40;;;;;;;;;;4951195;28;98899;-79
2023/06/07 09:14:28;;;;;;;13.23;4.55;;;;;;;;;;4948598;28;98360;-79
2023/06/07 09:16:55;;;;;;;18.55;4.78;;;;;;;;;;4949453;28;98874;-78
2023/06/07 09:19:32;;;;;;;14.50;4.55;;;;;;;;;;4949488;28;101413;-78
2023/06/07 09:21:59;;;;;;;14.05;5.03;;;;;;;;;;4939486;28;98623;-79
2023/06/07 09:24:27;;;;;;;25.75;4.43;;;;;;;;;;4941682;28;102105;-79
2023/06/07 09:26:54;;;;;;;10.30;4.18;;;;;;;;;;4958486;28;98531;-80
2023/06/07 09:29:21;;;;;;;11.93;4.88;;;;;;;;;;4948577;28;97437;-80
2023/06/07 09:31:48;;;;;;;19.27;5.65;;;;;;;;;;4943909;28;100321;-80
2023/06/07 09:34:22;;;;;;;19.77;5.20;;;;;;;;;;4946583;28;102004;-80
2023/06/07 09:36:49;;;;;;;17.30;4.40;;;;;;;;;;4952693;28;99394;-80
2023/06/07 09:39:21;;;;;;;15.25;4.70;;;;;;;;;;4959080;28;98752;-81
2023/06/07 09:41:47;;;;;;;21.38;5.18;;;;;;;;;;4961767;28;98501;-80
2023/06/07 09:44:25;;;;;;;47.42;5.63;;;;;;;;;;4958563;28;98387;-80
2023/06/07 09:46:52;;;;;;;18.13;5.10;;;;;;;;;;4956932;28;98378;-80
2023/06/07 09:49:28;;;;;;;20.08;5.30;;;;;;;;;;4967896;28;97902;-80
2023/06/07 09:51:55;;;;;;;17.17;4.63;;;;;;;;;;4960799;28;98493;-81
2023/06/07 09:54:38;;;;;;;13.10;4.75;;;;;;;;;;4962071;28;97383;-80
2023/06/07 09:57:26;;;;;;;10.55;4.60;;;;;;;;;;4947081;28;98471;-80
2023/06/07 10:00:13;;;;;;;11.93;4.45;;;;;;;;;;4969038;28;99357;-80
2023/06/07 10:02:44;;;;;;;19.10;5.13;;;;;;;;;;4943476;28;99407;-80
2023/06/07 10:05:14;;;;;;;15.18;5.30;;;;;;;;;;4960113;28;99963;-79
2023/06/07 10:07:48;;;;;;;12.93;5.13;;;;;;;;;;4934472;28;99914;-80
2023/06/07 10:10:17;;;;;;;8.75;4.15;;;;;;;;;;4958757;28;98560;-80
2023/06/07 10:12:46;;;;;;;9.40;4.55;;;;;;;;;;4944588;28;98511;-80
2023/06/07 10:15:14;;;;;;;22.85;4.95;;;;;;;;;;4957732;28;98396;-80
2023/06/07 10:17:48;;;;;;;13.77;5.65;;;;;;;;;;4959620;28;98475;-81
2023/06/07 10:20:19;;;;;;;18.30;5.10;;;;;;;;;;4952240;28;97624;-80
2023/06/07 10:22:46;;;;;;;14.82;6.05;;;;;;;;;;4943300;28;99265;-80
2023/06/07 10:25:16;;;;;;;22.13;4.80;;;;;;;;;;4941252;28;100689;-80
2023/06/07 10:27:45;;;;;;;12.03;5.37;;;;;;;;;;4956931;28;99236;-80
2023/06/07 10:30:14;;;;;;;14.27;4.43;;;;;;;;;;4933722;28;98551;-80
2023/06/07 10:32:41;;;;;;;14.88;4.90;;;;;;;;;;4956985;28;99638;-80
2023/06/07 10:35:09;;;;;;;15.15;5.13;;;;;;;;;;4955663;28;99323;-79
2023/06/07 10:37:42;;;;;;;14.70;5.63;;;;;;;;;;4957625;28;98613;-79
2023/06/07 10:40:14;;;;;;;21.98;5.53;;;;;;;;;;4950708;28;98308;-79
2023/06/07 10:42:43;;;;;;;17.00;5.45;;;;;;;;;;4957394;28;99234;-80
2023/06/07 10:45:15;;;;;;;12.98;4.60;;;;;;;;;;4945327;28;97970;-79
2023/06/07 10:47:42;;;;;;;15.45;4.75;;;;;;;;;;4941297;28;98355;-79
2023/06/07 10:50:31;;;;;;;15.77;4.28;;;;;;;;;;4940826;28;98080;-79
2023/06/07 10:52:59;;;;;;;8.95;4.78;;;;;;;;;;4948464;28;99303;-79
2023/06/07 10:55:33;;;;;;;13.85;5.18;;;;;;;;;;4945652;28;98527;-80
2023/06/07 10:58:00;;;;;;;18.33;5.35;;;;;;;;;;4948097;28;98534;-79
2023/06/07 11:00:28;;;;;;;18.85;5.18;;;;;;;;;;4949922;28;98567;-79
2023/06/07 11:03:04;;;;;;;10.40;4.47;;;;;;;;;;4948100;28;99317;-79
2023/06/07 11:05:50;;;;;;;11.43;4.28;;;;;;;;;;4945246;28;98365;-80
2023/06/07 11:08:24;;;;;;;12.57;5.30;;;;;;;;;;4949154;28;101147;-79
2023/06/07 11:10:51;;;;;;;15.23;5.05;;;;;;;;;;4951829;28;97750;-80
2023/06/07 11:13:17;;;;;;;16.00;5.30;;;;;;;;;;4950786;28;98425;-80
2023/06/07 11:15:44;;;;;;;14.85;5.25;;;;;;;;;;4950359;28;98622;-79
2023/06/07 11:18:11;;;;;;;7.43;4.30;;;;;;;;;;4951304;28;99258;-79
2023/06/07 11:20:45;;;;;;;7.83;4.47;;;;;;;;;;4957711;28;98577;-80
2023/06/07 11:23:21;;;;;;;12.65;4.90;;;;;;;;;;4959722;28;98566;-80
2023/06/07 11:25:53;;;;;;;11.65;4.80;;;;;;;;;;4965233;28;98395;-81
2023/06/07 11:28:31;;;;;;;14.90;4.77;;;;;;;;;;4968012;28;98481;-81
2023/06/07 11:31:00;;;;;;;18.00;5.97;;;;;;;;;;4965702;28;98838;-81
2023/06/07 11:33:27;;;;;;;14.50;4.85;;;;;;;;;;4964994;28;97652;-81
2023/06/07 11:35:54;;;;;;;12.65;4.57;;;;;;;;;;4965351;28;97256;-81
2023/06/07 11:38:22;;;;;;;13.30;4.90;;;;;;;;;;4948181;28;98399;-81
2023/06/07 11:40:49;;;;;;;18.27;4.88;;;;;;;;;;4964486;28;98158;-80
2023/06/07 11:43:17;;;;;;;19.13;5.60;;;;;;;;;;4958818;28;100866;-82
2023/06/07 11:45:44;;;;;;;10.68;4.93;;;;;;;;;;4960437;28;98483;-81
2023/06/07 11:48:10;;;;;;;12.18;4.43;;;;;;;;;;4964074;28;98247;-81
2023/06/07 11:50:38;;;;;;;11.60;4.65;;;;;;;;;;4962698;28;98448;-81
2023/06/07 11:53:06;;;;;;;12.95;5.38;;;;;;;;;;4961213;28;98416;-81
2023/06/07 11:55:34;;;;;;;17.38;4.65;;;;;;;;;;4963454;28;100318;-82
2023/06/07 11:58:02;;;;;;;16.08;4.90;;;;;;;;;;4964175;28;97933;-82
2023/06/07 12:00:31;;;;;;;7.75;3.83;;;;;;;;;;4964980;28;97682;-81
2023/06/07 12:02:58;;;;;;;9.73;4.90;;;;;;;;;;4963107;28;99654;-81
2023/06/07 12:05:34;;;;;;;14.32;4.45;;;;;;;;;;4955172;28;97708;-81
2023/06/07 12:08:04;;;;;;;13.35;4.32;;;;;;;;;;4963522;28;99239;-82
2023/06/07 12:10:31;;;;;;;17.17;5.05;;;;;;;;;;4954262;28;98287;-81
2023/06/07 12:13:13;;;;;;;10.35;4.90;;;;;;;;;;4959568;28;98161;-81
2023/06/07 12:15:40;;;;;;;13.60;4.10;;;;;;;;;;4947943;28;98979;-81
2023/06/07 12:18:11;;;;;;;17.33;4.50;;;;;;;;;;4960254;28;98055;-81
2023/06/07 12:20:38;;;;;;;21.15;5.10;;;;;;;;;;4963001;28;99294;-81
2023/06/07 12:23:05;;;;;;;9.40;3.80;;;;;;;;;;4955152;28;98389;-81
2023/06/07 12:25:33;;;;;;;15.05;5.00;;;;;;;;;;4962130;28;97692;-81
2023/06/07 12:28:05;;;;;;;12.65;4.50;;;;;;;;;;4970655;28;98011;-81
2023/06/07 12:30:33;;;;;;;12.38;4.25;;;;;;;;;;4967783;28;100206;-81
2023/06/07 12:33:00;;;;;;;12.05;5.03;;;;;;;;;;4961012;28;99044;-81
2023/06/07 12:35:38;;;;;;;17.65;4.78;;;;;;;;;;4967492;28;98467;-81
2023/06/07 12:38:05;;;;;;;14.00;4.82;;;;;;;;;;4952210;28;98394;-81
2023/06/07 12:40:32;;;;;;;14.13;4.65;;;;;;;;;;4959188;28;98337;-82
2023/06/07 12:42:59;;;;;;;10.27;4.22;;;;;;;;;;4963476;28;98498;-82
2023/06/07 12:45:25;;;;;;;10.23;5.07;;;;;;;;;;4961397;28;98444;-81
2023/06/07 12:47:52;;;;;;;15.32;5.30;;;;;;;;;;4955507;28;98523;-81
2023/06/07 12:50:19;;;;;;;8.98;3.97;;;;;;;;;;4952559;28;99254;-80
2023/06/07 12:52:46;;;;;;;11.70;4.15;;;;;;;;;;4949980;28;98261;-81
2023/06/07 12:55:12;;;;;;;13.93;4.63;;;;;;;;;;4956666;28;98491;-81
2023/06/07 12:57:39;;;;;;;10.88;4.22;;;;;;;;;;4956102;28;99076;-80
2023/06/07 13:00:06;;;;;;;17.13;4.53;;;;;;;;;;4954950;28;101387;-81
2023/06/07 13:02:34;;;;;;;9.73;4.43;;;;;;;;;;4956316;28;98583;-82
2023/06/07 13:05:04;;;;;;;12.95;3.97;;;;;;;;;;4956424;28;98380;-81
2023/06/07 13:07:32;;;;;;;15.68;4.18;;;;;;;;;;4968585;28;98527;-81
2023/06/07 13:09:59;;;;;;;13.38;4.28;;;;;;;;;;4956355;28;98851;-81
2023/06/07 13:12:27;;;;;;;14.20;4.53;;;;;;;;;;4954971;28;97998;-81
2023/06/07 13:14:54;;;;;;;23.17;5.00;;;;;;;;;;4960285;28;98254;-81
2023/06/07 13:17:20;;;;;;;6.97;3.63;;;;;;;;;;4963996;28;98497;-81
2023/06/07 13:19:47;;;;;;;12.35;4.38;;;;;;;;;;4961943;28;98926;-81
2023/06/07 13:22:14;;;;;;;13.38;3.72;;;;;;;;;;4962550;28;98790;-81
2023/06/07 13:24:40;;;;;;;10.98;3.83;;;;;;;;;;4966625;28;98775;-81
2023/06/07 13:27:08;;;;;;;17.67;3.70;;;;;;;;;;4956782;28;98199;-81
2023/06/07 13:29:35;;;;;;;8.57;3.90;;;;;;;;;;4960693;28;98450;-82
2023/06/07 13:32:01;;;;;;;18.15;4.28;;;;;;;;;;4955187;28;98177;-81
2023/06/07 13:34:31;;;;;;;9.50;4.20;;;;;;;;;;4948307;28;98478;-82
2023/06/07 13:36:57;;;;;;;16.52;4.57;;;;;;;;;;4956762;28;99322;-82
2023/06/07 13:39:25;;;;;;;13.90;4.13;;;;;;;;;;4965683;28;97721;-82
2023/06/07 13:41:51;;;;;;;23.88;5.47;;;;;;;;;;4961399;28;98275;-82
2023/06/07 13:44:18;;;;;;;11.25;4.00;;;;;;;;;;4960843;28;98335;-82
2023/06/07 13:46:45;;;;;;;13.43;3.65;;;;;;;;;;4946046;28;100820;-82
2023/06/07 13:49:12;;;;;;;10.30;3.78;;;;;;;;;;4957157;28;98574;-82
2023/06/07 13:51:39;;;;;;;16.08;4.95;;;;;;;;;;4950725;28;98348;-81
2023/06/07 13:54:05;;;;;;;11.98;4.10;;;;;;;;;;4951529;28;99134;-82
2023/06/07 13:56:32;;;;;;;8.90;3.88;;;;;;;;;;4956772;28;98150;-82
2023/06/07 13:58:58;;;;;;;16.75;4.13;;;;;;;;;;4943055;28;99484;-82
2023/06/07 14:01:26;;;;;;;18.30;4.53;;;;;;;;;;4963534;28;98652;-81
2023/06/07 14:03:53;;;;;;;13.63;4.65;;;;;;;;;;4964483;28;97708;-81
2023/06/07 14:06:22;;;;;;;11.82;4.20;;;;;;;;;;4977183;28;98468;-81
2023/06/07 14:08:49;;;;;;;8.95;3.92;;;;;;;;;;4965196;28;98479;-82
2023/06/07 14:11:16;;;;;;;11.75;3.92;;;;;;;;;;4950884;28;99200;-82
2023/06/07 14:13:43;;;;;;;13.75;4.22;;;;;;;;;;4968945;28;99591;-81
2023/06/07 14:16:11;;;;;;;18.10;3.67;;;;;;;;;;4970945;28;98453;-81
2023/06/07 14:18:38;;;;;;;28.92;4.53;;;;;;;;;;4963710;28;98483;-81
2023/06/07 14:21:05;;;;;;;17.23;3.72;;;;;;;;;;4944316;28;99256;-79
2023/06/07 14:23:32;;;;;;;10.77;4.38;;;;;;;;;;4946442;28;101124;-79
2023/06/07 14:25:59;;;;;;;9.35;3.15;;;;;;;;;;4958479;28;98499;-80
2023/06/07 14:28:26;;;;;;;11.70;4.20;;;;;;;;;;4969703;28;99094;-79
2023/06/07 14:30:52;;;;;;;15.38;4.53;;;;;;;;;;4953708;28;98567;-79
2023/06/07 14:33:19;;;;;;;14.70;4.78;;;;;;;;;;4951523;28;98861;-79
2023/06/07 14:35:45;;;;;;;15.07;4.05;;;;;;;;;;4948392;28;100450;-79